sensor_id;sensor_type;location;lat;lon;timestamp;P1;durP1;ratioP1;P2;durP2;ratioP2
18228;SDS011;9239;50.932;3.142;2023-02-17T00:01:51;9.50;;;8.37;;
18228;SDS011;9239;50.932;3.142;2023-02-17T00:04:17;9.60;;;8.60;;
18228;SDS011;9239;50.932;3.142;2023-02-17T00:06:44;8.93;;;8.03;;
18228;SDS011;9239;50.932;3.142;2023-02-17T00:09:12;9.43;;;7.67;;
18228;SDS011;9239;50.932;3.142;2023-02-17T00:11:39;8.87;;;7.67;;
18228;SDS011;9239;50.932;3.142;2023-02-17T00:14:07;7.80;;;7.00;;
18228;SDS011;9239;50.932;3.142;2023-02-17T00:16:36;9.23;;;7.40;;
18228;SDS011;9239;50.932;3.142;2023-02-17T00:19:03;10.90;;;7.97;;
18228;SDS011;9239;50.932;3.142;2023-02-17T00:21:47;10.33;;;8.40;;
18228;SDS011;9239;50.932;3.142;2023-02-17T00:24:16;7.90;;;7.10;;
18228;SDS011;9239;50.932;3.142;2023-02-17T00:26:43;9.33;;;6.83;;
18228;SDS011;9239;50.932;3.142;2023-02-17T00:29:09;7.87;;;6.13;;
18228;SDS011;9239;50.932;3.142;2023-02-17T00:31:36;7.40;;;6.23;;
18228;SDS011;9239;50.932;3.142;2023-02-17T00:34:03;6.80;;;6.07;;
18228;SDS011;9239;50.932;3.142;2023-02-17T00:36:30;7.37;;;5.47;;
18228;SDS011;9239;50.932;3.142;2023-02-17T00:38:57;6.37;;;5.13;;
18228;SDS011;9239;50.932;3.142;2023-02-17T00:41:27;6.80;;;5.47;;
18228;SDS011;9239;50.932;3.142;2023-02-17T00:43:54;6.50;;;5.30;;
18228;SDS011;9239;50.932;3.142;2023-02-17T00:46:21;6.17;;;5.07;;
18228;SDS011;9239;50.932;3.142;2023-02-17T00:48:49;5.87;;;5.07;;
18228;SDS011;9239;50.932;3.142;2023-02-17T00:51:16;5.33;;;4.73;;
18228;SDS011;9239;50.932;3.142;2023-02-17T00:53:44;8.10;;;5.17;;
18228;SDS011;9239;50.932;3.142;2023-02-17T00:56:11;5.63;;;5.00;;
18228;SDS011;9239;50.932;3.142;2023-02-17T00:58:40;5.30;;;4.57;;
18228;SDS011;9239;50.932;3.142;2023-02-17T01:01:07;5.93;;;5.37;;
18228;SDS011;9239;50.932;3.142;2023-02-17T01:03:35;9.17;;;5.83;;
18228;SDS011;9239;50.932;3.142;2023-02-17T01:06:04;7.87;;;5.47;;
18228;SDS011;9239;50.932;3.142;2023-02-17T01:08:32;6.43;;;4.80;;
18228;SDS011;9239;50.932;3.142;2023-02-17T01:10:59;6.73;;;4.93;;
18228;SDS011;9239;50.932;3.142;2023-02-17T01:13:26;5.20;;;4.70;;
18228;SDS011;9239;50.932;3.142;2023-02-17T01:15:55;6.00;;;3.83;;
18228;SDS011;9239;50.932;3.142;2023-02-17T01:18:23;5.40;;;4.00;;
18228;SDS011;9239;50.932;3.142;2023-02-17T01:20:50;4.83;;;3.23;;
18228;SDS011;9239;50.932;3.142;2023-02-17T01:23:17;5.40;;;3.27;;
18228;SDS011;9239;50.932;3.142;2023-02-17T01:25:45;4.00;;;3.50;;
18228;SDS011;9239;50.932;3.142;2023-02-17T01:28:15;3.73;;;2.90;;
18228;SDS011;9239;50.932;3.142;2023-02-17T01:30:43;4.00;;;3.50;;
18228;SDS011;9239;50.932;3.142;2023-02-17T01:33:11;3.63;;;3.03;;
18228;SDS011;9239;50.932;3.142;2023-02-17T01:35:38;3.20;;;2.90;;
18228;SDS011;9239;50.932;3.142;2023-02-17T01:38:06;3.60;;;2.73;;
18228;SDS011;9239;50.932;3.142;2023-02-17T01:40:33;3.40;;;2.53;;
18228;SDS011;9239;50.932;3.142;2023-02-17T01:43:00;3.97;;;2.77;;
18228;SDS011;9239;50.932;3.142;2023-02-17T01:45:29;4.23;;;3.17;;
18228;SDS011;9239;50.932;3.142;2023-02-17T01:48:02;5.00;;;3.10;;
18228;SDS011;9239;50.932;3.142;2023-02-17T01:50:35;5.20;;;3.20;;
18228;SDS011;9239;50.932;3.142;2023-02-17T01:53:04;4.67;;;3.23;;
18228;SDS011;9239;50.932;3.142;2023-02-17T01:55:33;6.00;;;2.97;;
18228;SDS011;9239;50.932;3.142;2023-02-17T01:58:02;4.67;;;2.77;;
18228;SDS011;9239;50.932;3.142;2023-02-17T02:00:32;6.20;;;3.17;;
18228;SDS011;9239;50.932;3.142;2023-02-17T02:03:00;4.70;;;2.87;;
18228;SDS011;9239;50.932;3.142;2023-02-17T02:05:31;5.70;;;2.80;;
18228;SDS011;9239;50.932;3.142;2023-02-17T02:08:00;4.80;;;2.73;;
18228;SDS011;9239;50.932;3.142;2023-02-17T02:10:27;3.93;;;2.57;;
18228;SDS011;9239;50.932;3.142;2023-02-17T02:12:54;3.73;;;2.50;;
18228;SDS011;9239;50.932;3.142;2023-02-17T02:15:22;5.83;;;2.70;;
18228;SDS011;9239;50.932;3.142;2023-02-17T02:17:59;4.43;;;2.77;;
18228;SDS011;9239;50.932;3.142;2023-02-17T02:20:38;3.47;;;2.40;;
18228;SDS011;9239;50.932;3.142;2023-02-17T02:23:33;3.37;;;2.67;;
18228;SDS011;9239;50.932;3.142;2023-02-17T02:26:17;3.30;;;2.70;;
18228;SDS011;9239;50.932;3.142;2023-02-17T02:29:10;3.87;;;2.63;;
18228;SDS011;9239;50.932;3.142;2023-02-17T02:31:50;3.73;;;2.30;;
18228;SDS011;9239;50.932;3.142;2023-02-17T02:34:29;5.53;;;2.60;;
18228;SDS011;9239;50.932;3.142;2023-02-17T02:37:01;4.00;;;2.63;;
18228;SDS011;9239;50.932;3.142;2023-02-17T02:39:34;3.83;;;2.50;;
18228;SDS011;9239;50.932;3.142;2023-02-17T02:42:05;4.43;;;2.67;;
18228;SDS011;9239;50.932;3.142;2023-02-17T02:44:35;3.67;;;2.97;;
18228;SDS011;9239;50.932;3.142;2023-02-17T02:47:03;3.80;;;2.67;;
18228;SDS011;9239;50.932;3.142;2023-02-17T02:49:33;4.00;;;2.50;;
18228;SDS011;9239;50.932;3.142;2023-02-17T02:52:02;3.23;;;2.27;;
18228;SDS011;9239;50.932;3.142;2023-02-17T02:54:36;3.90;;;2.50;;
18228;SDS011;9239;50.932;3.142;2023-02-17T03:00:10;3.63;;;2.47;;
18228;SDS011;9239;50.932;3.142;2023-02-17T03:02:47;2.63;;;2.07;;
18228;SDS011;9239;50.932;3.142;2023-02-17T03:05:21;3.73;;;2.40;;
18228;SDS011;9239;50.932;3.142;2023-02-17T03:07:54;4.57;;;2.47;;
18228;SDS011;9239;50.932;3.142;2023-02-17T03:10:24;2.77;;;2.17;;
18228;SDS011;9239;50.932;3.142;2023-02-17T03:12:51;4.47;;;2.00;;
18228;SDS011;9239;50.932;3.142;2023-02-17T03:15:18;2.60;;;2.20;;
18228;SDS011;9239;50.932;3.142;2023-02-17T03:17:49;4.17;;;2.20;;
18228;SDS011;9239;50.932;3.142;2023-02-17T03:20:15;5.93;;;3.10;;
18228;SDS011;9239;50.932;3.142;2023-02-17T03:22:44;3.77;;;2.50;;
18228;SDS011;9239;50.932;3.142;2023-02-17T03:25:13;6.10;;;2.70;;
18228;SDS011;9239;50.932;3.142;2023-02-17T03:27:40;5.53;;;2.73;;
18228;SDS011;9239;50.932;3.142;2023-02-17T03:30:08;4.63;;;2.67;;
18228;SDS011;9239;50.932;3.142;2023-02-17T03:32:35;4.50;;;2.50;;
18228;SDS011;9239;50.932;3.142;2023-02-17T03:35:03;6.97;;;3.13;;
18228;SDS011;9239;50.932;3.142;2023-02-17T03:37:30;5.77;;;2.70;;
18228;SDS011;9239;50.932;3.142;2023-02-17T03:39:58;4.13;;;2.53;;
18228;SDS011;9239;50.932;3.142;2023-02-17T03:42:25;5.70;;;2.93;;
18228;SDS011;9239;50.932;3.142;2023-02-17T03:44:52;4.23;;;2.70;;
18228;SDS011;9239;50.932;3.142;2023-02-17T03:47:19;4.50;;;2.80;;
18228;SDS011;9239;50.932;3.142;2023-02-17T03:49:46;5.93;;;2.90;;
18228;SDS011;9239;50.932;3.142;2023-02-17T03:52:12;4.57;;;2.87;;
18228;SDS011;9239;50.932;3.142;2023-02-17T03:54:39;5.20;;;3.20;;
18228;SDS011;9239;50.932;3.142;2023-02-17T03:57:07;4.00;;;2.30;;
18228;SDS011;9239;50.932;3.142;2023-02-17T03:59:35;3.77;;;2.47;;
18228;SDS011;9239;50.932;3.142;2023-02-17T04:02:02;4.47;;;2.67;;
18228;SDS011;9239;50.932;3.142;2023-02-17T04:04:29;4.70;;;3.03;;
18228;SDS011;9239;50.932;3.142;2023-02-17T04:06:56;4.03;;;2.80;;
18228;SDS011;9239;50.932;3.142;2023-02-17T04:09:23;3.47;;;2.63;;
18228;SDS011;9239;50.932;3.142;2023-02-17T04:11:50;4.90;;;2.83;;
18228;SDS011;9239;50.932;3.142;2023-02-17T04:14:18;2.97;;;2.30;;
18228;SDS011;9239;50.932;3.142;2023-02-17T04:16:45;3.37;;;2.70;;
18228;SDS011;9239;50.932;3.142;2023-02-17T04:19:12;3.67;;;2.50;;
18228;SDS011;9239;50.932;3.142;2023-02-17T04:21:38;3.23;;;2.47;;
18228;SDS011;9239;50.932;3.142;2023-02-17T04:24:05;4.50;;;2.50;;
18228;SDS011;9239;50.932;3.142;2023-02-17T04:26:32;2.67;;;2.08;;
18228;SDS011;9239;50.932;3.142;2023-02-17T04:28:59;2.67;;;2.40;;
18228;SDS011;9239;50.932;3.142;2023-02-17T04:31:30;2.67;;;2.30;;
18228;SDS011;9239;50.932;3.142;2023-02-17T04:33:57;3.80;;;2.23;;
18228;SDS011;9239;50.932;3.142;2023-02-17T04:36:25;2.77;;;2.53;;
18228;SDS011;9239;50.932;3.142;2023-02-17T04:38:52;2.57;;;1.87;;
18228;SDS011;9239;50.932;3.142;2023-02-17T04:41:19;2.60;;;2.20;;
18228;SDS011;9239;50.932;3.142;2023-02-17T04:43:45;3.60;;;2.40;;
18228;SDS011;9239;50.932;3.142;2023-02-17T04:46:12;2.77;;;2.00;;
18228;SDS011;9239;50.932;3.142;2023-02-17T04:48:40;2.67;;;1.93;;
18228;SDS011;9239;50.932;3.142;2023-02-17T04:51:07;2.67;;;2.13;;
18228;SDS011;9239;50.932;3.142;2023-02-17T04:53:34;4.13;;;2.80;;
18228;SDS011;9239;50.932;3.142;2023-02-17T04:56:01;2.43;;;2.10;;
18228;SDS011;9239;50.932;3.142;2023-02-17T04:58:28;4.70;;;2.80;;
18228;SDS011;9239;50.932;3.142;2023-02-17T05:00:57;3.43;;;3.03;;
18228;SDS011;9239;50.932;3.142;2023-02-17T05:03:24;3.77;;;2.77;;
18228;SDS011;9239;50.932;3.142;2023-02-17T05:05:53;5.17;;;4.23;;
18228;SDS011;9239;50.932;3.142;2023-02-17T05:08:20;4.30;;;3.90;;
18228;SDS011;9239;50.932;3.142;2023-02-17T05:10:47;4.60;;;4.10;;
18228;SDS011;9239;50.932;3.142;2023-02-17T05:13:15;5.10;;;4.60;;
18228;SDS011;9239;50.932;3.142;2023-02-17T05:15:42;5.30;;;4.23;;
18228;SDS011;9239;50.932;3.142;2023-02-17T05:18:09;4.03;;;3.73;;
18228;SDS011;9239;50.932;3.142;2023-02-17T05:20:36;3.60;;;3.30;;
18228;SDS011;9239;50.932;3.142;2023-02-17T05:23:04;4.33;;;3.97;;
18228;SDS011;9239;50.932;3.142;2023-02-17T05:25:31;4.00;;;3.50;;
18228;SDS011;9239;50.932;3.142;2023-02-17T05:27:58;4.70;;;4.30;;
18228;SDS011;9239;50.932;3.142;2023-02-17T05:30:25;5.67;;;4.67;;
18228;SDS011;9239;50.932;3.142;2023-02-17T05:32:53;6.13;;;5.07;;
18228;SDS011;9239;50.932;3.142;2023-02-17T05:35:20;5.30;;;4.80;;
18228;SDS011;9239;50.932;3.142;2023-02-17T05:37:47;4.93;;;4.33;;
18228;SDS011;9239;50.932;3.142;2023-02-17T05:40:15;4.10;;;3.80;;
18228;SDS011;9239;50.932;3.142;2023-02-17T05:42:42;4.43;;;4.03;;
18228;SDS011;9239;50.932;3.142;2023-02-17T05:45:09;3.83;;;3.07;;
18228;SDS011;9239;50.932;3.142;2023-02-17T05:47:36;4.13;;;3.83;;
18228;SDS011;9239;50.932;3.142;2023-02-17T05:50:03;4.63;;;4.13;;
18228;SDS011;9239;50.932;3.142;2023-02-17T05:52:31;4.30;;;3.30;;
18228;SDS011;9239;50.932;3.142;2023-02-17T05:54:58;4.50;;;4.10;;
18228;SDS011;9239;50.932;3.142;2023-02-17T05:57:26;4.40;;;3.97;;
18228;SDS011;9239;50.932;3.142;2023-02-17T05:59:54;3.97;;;3.67;;
18228;SDS011;9239;50.932;3.142;2023-02-17T06:02:21;3.57;;;3.23;;
18228;SDS011;9239;50.932;3.142;2023-02-17T06:04:48;4.03;;;3.17;;
18228;SDS011;9239;50.932;3.142;2023-02-17T06:07:15;4.80;;;4.30;;
18228;SDS011;9239;50.932;3.142;2023-02-17T06:09:42;4.47;;;4.17;;
18228;SDS011;9239;50.932;3.142;2023-02-17T06:12:09;3.67;;;3.37;;
18228;SDS011;9239;50.932;3.142;2023-02-17T06:14:37;5.03;;;4.53;;
18228;SDS011;9239;50.932;3.142;2023-02-17T06:17:04;4.00;;;3.70;;
18228;SDS011;9239;50.932;3.142;2023-02-17T06:19:31;4.80;;;3.63;;
18228;SDS011;9239;50.932;3.142;2023-02-17T06:21:58;3.60;;;3.30;;
18228;SDS011;9239;50.932;3.142;2023-02-17T06:24:25;3.93;;;3.53;;
18228;SDS011;9239;50.932;3.142;2023-02-17T06:26:52;3.83;;;2.77;;
18228;SDS011;9239;50.932;3.142;2023-02-17T06:29:19;2.70;;;2.50;;
18228;SDS011;9239;50.932;3.142;2023-02-17T06:31:47;2.43;;;2.23;;
18228;SDS011;9239;50.932;3.142;2023-02-17T06:34:14;2.60;;;2.33;;
18228;SDS011;9239;50.932;3.142;2023-02-17T06:36:40;2.63;;;2.10;;
18228;SDS011;9239;50.932;3.142;2023-02-17T06:39:07;1.90;;;1.80;;
18228;SDS011;9239;50.932;3.142;2023-02-17T06:41:34;2.30;;;2.10;;
18228;SDS011;9239;50.932;3.142;2023-02-17T06:44:01;1.63;;;1.53;;
18228;SDS011;9239;50.932;3.142;2023-02-17T06:46:28;2.00;;;1.80;;
18228;SDS011;9239;50.932;3.142;2023-02-17T06:48:57;1.70;;;1.60;;
18228;SDS011;9239;50.932;3.142;2023-02-17T06:51:25;2.20;;;1.60;;
18228;SDS011;9239;50.932;3.142;2023-02-17T06:53:52;2.43;;;1.53;;
18228;SDS011;9239;50.932;3.142;2023-02-17T06:56:19;1.53;;;1.43;;
18228;SDS011;9239;50.932;3.142;2023-02-17T06:58:46;1.73;;;1.63;;
18228;SDS011;9239;50.932;3.142;2023-02-17T07:01:14;1.80;;;1.70;;
18228;SDS011;9239;50.932;3.142;2023-02-17T07:03:42;2.00;;;1.80;;
18228;SDS011;9239;50.932;3.142;2023-02-17T07:06:11;2.60;;;2.03;;
18228;SDS011;9239;50.932;3.142;2023-02-17T07:08:38;1.70;;;1.60;;
18228;SDS011;9239;50.932;3.142;2023-02-17T07:11:05;2.50;;;1.70;;
18228;SDS011;9239;50.932;3.142;2023-02-17T07:13:33;2.17;;;1.57;;
18228;SDS011;9239;50.932;3.142;2023-02-17T07:16:00;1.87;;;1.53;;
18228;SDS011;9239;50.932;3.142;2023-02-17T07:18:27;1.47;;;1.37;;
18228;SDS011;9239;50.932;3.142;2023-02-17T07:20:54;1.60;;;1.50;;
18228;SDS011;9239;50.932;3.142;2023-02-17T07:23:22;1.57;;;1.47;;
18228;SDS011;9239;50.932;3.142;2023-02-17T07:25:49;2.30;;;1.67;;
18228;SDS011;9239;50.932;3.142;2023-02-17T07:28:16;1.80;;;1.70;;
18228;SDS011;9239;50.932;3.142;2023-02-17T07:30:43;2.20;;;1.43;;
18228;SDS011;9239;50.932;3.142;2023-02-17T07:33:10;1.50;;;1.40;;
18228;SDS011;9239;50.932;3.142;2023-02-17T07:35:39;1.60;;;1.50;;
18228;SDS011;9239;50.932;3.142;2023-02-17T07:38:08;1.70;;;1.60;;
18228;SDS011;9239;50.932;3.142;2023-02-17T07:40:37;2.17;;;1.47;;
18228;SDS011;9239;50.932;3.142;2023-02-17T07:43:04;3.17;;;1.70;;
18228;SDS011;9239;50.932;3.142;2023-02-17T07:45:31;2.07;;;1.97;;
18228;SDS011;9239;50.932;3.142;2023-02-17T07:47:58;2.30;;;2.10;;
18228;SDS011;9239;50.932;3.142;2023-02-17T07:50:25;1.90;;;1.80;;
18228;SDS011;9239;50.932;3.142;2023-02-17T07:52:52;2.97;;;1.90;;
18228;SDS011;9239;50.932;3.142;2023-02-17T07:55:19;3.40;;;1.83;;
18228;SDS011;9239;50.932;3.142;2023-02-17T07:57:47;2.23;;;2.03;;
18228;SDS011;9239;50.932;3.142;2023-02-17T08:00:14;3.00;;;1.80;;
18228;SDS011;9239;50.932;3.142;2023-02-17T08:02:42;2.00;;;1.73;;
18228;SDS011;9239;50.932;3.142;2023-02-17T08:05:10;2.07;;;1.87;;
18228;SDS011;9239;50.932;3.142;2023-02-17T08:07:36;2.53;;;2.00;;
18228;SDS011;9239;50.932;3.142;2023-02-17T08:10:04;2.37;;;2.17;;
18228;SDS011;9239;50.932;3.142;2023-02-17T08:12:52;2.30;;;2.10;;
18228;SDS011;9239;50.932;3.142;2023-02-17T08:15:37;2.23;;;2.03;;
18228;SDS011;9239;50.932;3.142;2023-02-17T08:18:03;2.17;;;1.97;;
18228;SDS011;9239;50.932;3.142;2023-02-17T08:20:30;2.80;;;1.60;;
18228;SDS011;9239;50.932;3.142;2023-02-17T08:22:57;2.13;;;1.93;;
18228;SDS011;9239;50.932;3.142;2023-02-17T08:25:25;1.93;;;1.70;;
18228;SDS011;9239;50.932;3.142;2023-02-17T08:27:53;1.70;;;1.40;;
18228;SDS011;9239;50.932;3.142;2023-02-17T08:30:20;1.73;;;1.40;;
18228;SDS011;9239;50.932;3.142;2023-02-17T08:32:47;1.77;;;1.67;;
18228;SDS011;9239;50.932;3.142;2023-02-17T08:35:14;1.57;;;1.40;;
18228;SDS011;9239;50.932;3.142;2023-02-17T08:37:43;2.60;;;1.73;;
18228;SDS011;9239;50.932;3.142;2023-02-17T08:40:10;2.03;;;1.90;;
18228;SDS011;9239;50.932;3.142;2023-02-17T08:42:37;2.03;;;1.33;;
18228;SDS011;9239;50.932;3.142;2023-02-17T08:45:05;1.50;;;1.40;;
18228;SDS011;9239;50.932;3.142;2023-02-17T08:47:32;2.30;;;1.30;;
18228;SDS011;9239;50.932;3.142;2023-02-17T08:49:59;2.00;;;1.87;;
18228;SDS011;9239;50.932;3.142;2023-02-17T08:52:26;2.53;;;2.10;;
18228;SDS011;9239;50.932;3.142;2023-02-17T08:54:53;2.10;;;1.90;;
18228;SDS011;9239;50.932;3.142;2023-02-17T08:57:20;1.80;;;1.70;;
18228;SDS011;9239;50.932;3.142;2023-02-17T08:59:47;2.50;;;2.30;;
18228;SDS011;9239;50.932;3.142;2023-02-17T09:02:15;1.70;;;1.43;;
18228;SDS011;9239;50.932;3.142;2023-02-17T09:04:42;1.83;;;1.40;;
18228;SDS011;9239;50.932;3.142;2023-02-17T09:07:10;2.43;;;2.20;;
18228;SDS011;9239;50.932;3.142;2023-02-17T09:09:39;1.93;;;1.80;;
18228;SDS011;9239;50.932;3.142;2023-02-17T09:12:06;1.93;;;1.50;;
18228;SDS011;9239;50.932;3.142;2023-02-17T09:14:33;1.50;;;1.10;;
18228;SDS011;9239;50.932;3.142;2023-02-17T09:17:00;2.37;;;1.50;;
18228;SDS011;9239;50.932;3.142;2023-02-17T09:19:29;2.77;;;1.87;;
18228;SDS011;9239;50.932;3.142;2023-02-17T09:21:56;1.93;;;1.60;;
18228;SDS011;9239;50.932;3.142;2023-02-17T09:24:23;1.47;;;1.07;;
18228;SDS011;9239;50.932;3.142;2023-02-17T09:26:50;1.57;;;0.87;;
18228;SDS011;9239;50.932;3.142;2023-02-17T09:29:17;1.60;;;1.17;;
18228;SDS011;9239;50.932;3.142;2023-02-17T09:31:43;2.20;;;1.20;;
18228;SDS011;9239;50.932;3.142;2023-02-17T09:34:10;2.67;;;1.43;;
18228;SDS011;9239;50.932;3.142;2023-02-17T09:36:39;3.17;;;1.20;;
18228;SDS011;9239;50.932;3.142;2023-02-17T09:39:06;2.10;;;1.10;;
18228;SDS011;9239;50.932;3.142;2023-02-17T09:41:36;1.07;;;0.97;;
18228;SDS011;9239;50.932;3.142;2023-02-17T09:44:06;2.23;;;0.93;;
18228;SDS011;9239;50.932;3.142;2023-02-17T09:46:43;2.20;;;1.60;;
18228;SDS011;9239;50.932;3.142;2023-02-17T09:49:14;1.63;;;1.10;;
18228;SDS011;9239;50.932;3.142;2023-02-17T09:51:44;1.20;;;1.10;;
18228;SDS011;9239;50.932;3.142;2023-02-17T09:54:15;1.87;;;1.57;;
18228;SDS011;9239;50.932;3.142;2023-02-17T09:56:47;3.07;;;1.93;;
18228;SDS011;9239;50.932;3.142;2023-02-17T09:59:19;2.97;;;1.63;;
18228;SDS011;9239;50.932;3.142;2023-02-17T10:01:47;2.00;;;1.80;;
18228;SDS011;9239;50.932;3.142;2023-02-17T10:04:18;2.97;;;1.93;;
18228;SDS011;9239;50.932;3.142;2023-02-17T10:06:50;3.10;;;2.10;;
18228;SDS011;9239;50.932;3.142;2023-02-17T10:09:20;3.37;;;2.10;;
18228;SDS011;9239;50.932;3.142;2023-02-17T10:11:53;1.97;;;1.37;;
18228;SDS011;9239;50.932;3.142;2023-02-17T10:14:26;2.40;;;2.17;;
18228;SDS011;9239;50.932;3.142;2023-02-17T10:16:58;3.03;;;1.80;;
18228;SDS011;9239;50.932;3.142;2023-02-17T10:19:28;3.37;;;1.70;;
18228;SDS011;9239;50.932;3.142;2023-02-17T10:22:03;2.10;;;1.90;;
18228;SDS011;9239;50.932;3.142;2023-02-17T10:24:33;3.10;;;2.10;;
18228;SDS011;9239;50.932;3.142;2023-02-17T10:27:16;2.87;;;2.00;;
18228;SDS011;9239;50.932;3.142;2023-02-17T10:29:56;2.17;;;1.80;;
18228;SDS011;9239;50.932;3.142;2023-02-17T10:32:35;3.13;;;2.83;;
18228;SDS011;9239;50.932;3.142;2023-02-17T10:35:12;2.53;;;2.00;;
18228;SDS011;9239;50.932;3.142;2023-02-17T10:37:44;4.73;;;2.57;;
18228;SDS011;9239;50.932;3.142;2023-02-17T10:40:15;3.97;;;1.97;;
18228;SDS011;9239;50.932;3.142;2023-02-17T10:42:44;2.30;;;1.83;;
18228;SDS011;9239;50.932;3.142;2023-02-17T10:45:18;2.57;;;1.80;;
18228;SDS011;9239;50.932;3.142;2023-02-17T10:47:51;4.23;;;2.07;;
18228;SDS011;9239;50.932;3.142;2023-02-17T10:50:24;4.23;;;2.10;;
18228;SDS011;9239;50.932;3.142;2023-02-17T10:52:53;2.20;;;2.00;;
18228;SDS011;9239;50.932;3.142;2023-02-17T10:55:23;3.93;;;2.57;;
18228;SDS011;9239;50.932;3.142;2023-02-17T10:57:57;2.90;;;2.60;;
18228;SDS011;9239;50.932;3.142;2023-02-17T11:00:29;2.97;;;1.93;;
18228;SDS011;9239;50.932;3.142;2023-02-17T11:02:57;3.00;;;1.97;;
18228;SDS011;9239;50.932;3.142;2023-02-17T11:05:25;2.40;;;2.17;;
18228;SDS011;9239;50.932;3.142;2023-02-17T11:07:55;3.30;;;2.57;;
18228;SDS011;9239;50.932;3.142;2023-02-17T11:10:25;2.73;;;2.17;;
18228;SDS011;9239;50.932;3.142;2023-02-17T11:12:54;4.27;;;2.20;;
18228;SDS011;9239;50.932;3.142;2023-02-17T11:15:23;6.47;;;2.57;;
18228;SDS011;9239;50.932;3.142;2023-02-17T11:17:52;3.03;;;2.17;;
18228;SDS011;9239;50.932;3.142;2023-02-17T11:20:27;4.70;;;2.00;;
18228;SDS011;9239;50.932;3.142;2023-02-17T11:23:00;2.70;;;1.97;;
18228;SDS011;9239;50.932;3.142;2023-02-17T11:25:32;3.27;;;2.43;;
18228;SDS011;9239;50.932;3.142;2023-02-17T11:28:01;2.43;;;1.93;;
18228;SDS011;9239;50.932;3.142;2023-02-17T11:30:30;5.50;;;2.93;;
18228;SDS011;9239;50.932;3.142;2023-02-17T11:33:09;1.87;;;1.77;;
18228;SDS011;9239;50.932;3.142;2023-02-17T11:35:43;2.80;;;1.70;;
18228;SDS011;9239;50.932;3.142;2023-02-17T11:38:15;3.63;;;2.50;;
18228;SDS011;9239;50.932;3.142;2023-02-17T11:40:50;1.60;;;1.50;;
18228;SDS011;9239;50.932;3.142;2023-02-17T11:43:19;3.87;;;1.77;;
18228;SDS011;9239;50.932;3.142;2023-02-17T11:45:49;2.63;;;2.20;;
18228;SDS011;9239;50.932;3.142;2023-02-17T11:51:39;2.50;;;1.83;;
18228;SDS011;9239;50.932;3.142;2023-02-17T11:54:19;2.77;;;1.90;;
18228;SDS011;9239;50.932;3.142;2023-02-17T11:56:56;4.80;;;3.33;;
18228;SDS011;9239;50.932;3.142;2023-02-17T11:59:34;3.00;;;1.90;;
18228;SDS011;9239;50.932;3.142;2023-02-17T12:02:16;3.30;;;2.07;;
18228;SDS011;9239;50.932;3.142;2023-02-17T12:04:51;2.37;;;1.83;;
18228;SDS011;9239;50.932;3.142;2023-02-17T12:07:40;1.80;;;1.70;;
18228;SDS011;9239;50.932;3.142;2023-02-17T12:10:18;3.53;;;2.77;;
18228;SDS011;9239;50.932;3.142;2023-02-17T12:13:02;2.80;;;2.47;;
18228;SDS011;9239;50.932;3.142;2023-02-17T12:15:43;4.10;;;3.70;;
18228;SDS011;9239;50.932;3.142;2023-02-17T12:18:28;3.73;;;2.77;;
18228;SDS011;9239;50.932;3.142;2023-02-17T12:21:15;2.93;;;2.70;;
18228;SDS011;9239;50.932;3.142;2023-02-17T12:23:58;4.60;;;2.90;;
18228;SDS011;9239;50.932;3.142;2023-02-17T12:26:36;2.53;;;2.17;;
18228;SDS011;9239;50.932;3.142;2023-02-17T12:29:10;2.83;;;2.53;;
18228;SDS011;9239;50.932;3.142;2023-02-17T12:31:59;5.37;;;2.93;;
18228;SDS011;9239;50.932;3.142;2023-02-17T12:34:41;5.63;;;2.67;;
18228;SDS011;9239;50.932;3.142;2023-02-17T12:37:13;3.27;;;2.80;;
18228;SDS011;9239;50.932;3.142;2023-02-17T12:39:45;4.27;;;3.40;;
18228;SDS011;9239;50.932;3.142;2023-02-17T12:42:19;3.10;;;2.80;;
18228;SDS011;9239;50.932;3.142;2023-02-17T12:44:50;2.80;;;2.47;;
18228;SDS011;9239;50.932;3.142;2023-02-17T12:47:20;3.27;;;2.97;;
18228;SDS011;9239;50.932;3.142;2023-02-17T12:49:51;2.30;;;2.10;;
18228;SDS011;9239;50.932;3.142;2023-02-17T12:52:25;2.07;;;1.90;;
18228;SDS011;9239;50.932;3.142;2023-02-17T12:54:56;3.30;;;2.10;;
18228;SDS011;9239;50.932;3.142;2023-02-17T12:57:31;2.67;;;2.00;;
18228;SDS011;9239;50.932;3.142;2023-02-17T13:00:10;2.90;;;1.77;;
18228;SDS011;9239;50.932;3.142;2023-02-17T13:02:42;3.40;;;1.77;;
18228;SDS011;9239;50.932;3.142;2023-02-17T13:05:14;1.80;;;1.70;;
18228;SDS011;9239;50.932;3.142;2023-02-17T13:07:47;2.40;;;1.80;;
18228;SDS011;9239;50.932;3.142;2023-02-17T13:10:25;3.50;;;1.53;;
18228;SDS011;9239;50.932;3.142;2023-02-17T13:12:57;1.83;;;1.50;;
18228;SDS011;9239;50.932;3.142;2023-02-17T13:15:28;2.10;;;1.80;;
18228;SDS011;9239;50.932;3.142;2023-02-17T13:18:10;7.28;;;2.58;;
18228;SDS011;9239;50.932;3.142;2023-02-17T13:20:40;1.88;;;1.70;;
18228;SDS011;9239;50.932;3.142;2023-02-17T13:23:10;3.03;;;2.42;;
18228;SDS011;9239;50.932;3.142;2023-02-17T13:25:38;4.68;;;3.20;;
18228;SDS011;9239;50.932;3.142;2023-02-17T13:28:18;3.75;;;3.28;;
18228;SDS011;9239;50.932;3.142;2023-02-17T13:31:12;4.68;;;3.30;;
18228;SDS011;9239;50.932;3.142;2023-02-17T13:33:43;3.60;;;3.30;;
18228;SDS011;9239;50.932;3.142;2023-02-17T13:36:16;3.80;;;2.72;;
18228;SDS011;9239;50.932;3.142;2023-02-17T13:38:59;4.90;;;2.35;;
18228;SDS011;9239;50.932;3.142;2023-02-17T13:41:27;1.70;;;1.60;;
18228;SDS011;9239;50.932;3.142;2023-02-17T13:44:01;2.78;;;2.00;;
18228;SDS011;9239;50.932;3.142;2023-02-17T13:46:42;1.50;;;1.40;;
18228;SDS011;9239;50.932;3.142;2023-02-17T13:49:14;2.10;;;1.90;;
18228;SDS011;9239;50.932;3.142;2023-02-17T13:51:47;4.63;;;2.40;;
18228;SDS011;9239;50.932;3.142;2023-02-17T13:54:14;4.38;;;3.35;;
18228;SDS011;9239;50.932;3.142;2023-02-17T13:56:48;6.57;;;4.43;;
18228;SDS011;9239;50.932;3.142;2023-02-17T13:59:23;4.65;;;3.92;;
18228;SDS011;9239;50.932;3.142;2023-02-17T14:01:54;3.80;;;3.40;;
18228;SDS011;9239;50.932;3.142;2023-02-17T14:04:28;2.85;;;2.65;;
18228;SDS011;9239;50.932;3.142;2023-02-17T14:06:56;2.80;;;2.07;;
18228;SDS011;9239;50.932;3.142;2023-02-17T14:09:26;2.53;;;2.33;;
18228;SDS011;9239;50.932;3.142;2023-02-17T14:11:55;2.17;;;1.90;;
18228;SDS011;9239;50.932;3.142;2023-02-17T14:14:30;3.80;;;2.00;;
18228;SDS011;9239;50.932;3.142;2023-02-17T14:17:00;3.53;;;1.83;;
18228;SDS011;9239;50.932;3.142;2023-02-17T14:19:29;1.77;;;1.50;;
18228;SDS011;9239;50.932;3.142;2023-02-17T14:22:20;4.83;;;2.10;;
18228;SDS011;9239;50.932;3.142;2023-02-17T14:24:56;2.43;;;1.53;;
18228;SDS011;9239;50.932;3.142;2023-02-17T14:27:25;3.47;;;1.90;;
18228;SDS011;9239;50.932;3.142;2023-02-17T14:29:53;2.27;;;1.97;;
18228;SDS011;9239;50.932;3.142;2023-02-17T14:32:27;3.80;;;2.40;;
18228;SDS011;9239;50.932;3.142;2023-02-17T14:35:04;2.57;;;2.10;;
18228;SDS011;9239;50.932;3.142;2023-02-17T14:37:35;4.67;;;2.60;;
18228;SDS011;9239;50.932;3.142;2023-02-17T14:40:02;3.07;;;1.87;;
18228;SDS011;9239;50.932;3.142;2023-02-17T14:42:29;3.47;;;2.20;;
18228;SDS011;9239;50.932;3.142;2023-02-17T14:44:58;3.27;;;2.30;;
18228;SDS011;9239;50.932;3.142;2023-02-17T14:47:24;3.53;;;1.90;;
18228;SDS011;9239;50.932;3.142;2023-02-17T14:49:51;2.87;;;1.87;;
18228;SDS011;9239;50.932;3.142;2023-02-17T14:52:18;7.73;;;7.03;;
18228;SDS011;9239;50.932;3.142;2023-02-17T14:54:47;6.27;;;2.33;;
18228;SDS011;9239;50.932;3.142;2023-02-17T14:57:14;3.00;;;1.47;;
18228;SDS011;9239;50.932;3.142;2023-02-17T14:59:42;4.47;;;1.93;;
18228;SDS011;9239;50.932;3.142;2023-02-17T15:02:13;4.63;;;3.43;;
18228;SDS011;9239;50.932;3.142;2023-02-17T15:04:42;3.63;;;2.50;;
18228;SDS011;9239;50.932;3.142;2023-02-17T15:07:10;3.30;;;1.60;;
18228;SDS011;9239;50.932;3.142;2023-02-17T15:09:39;6.30;;;2.40;;
18228;SDS011;9239;50.932;3.142;2023-02-17T15:12:08;3.10;;;1.90;;
18228;SDS011;9239;50.932;3.142;2023-02-17T15:14:39;5.37;;;1.90;;
18228;SDS011;9239;50.932;3.142;2023-02-17T15:17:06;4.63;;;1.80;;
18228;SDS011;9239;50.932;3.142;2023-02-17T15:19:35;4.57;;;2.17;;
18228;SDS011;9239;50.932;3.142;2023-02-17T15:22:01;3.10;;;1.87;;
18228;SDS011;9239;50.932;3.142;2023-02-17T15:24:30;3.67;;;2.90;;